Terminal Aerodrome Forecast
Issued by NWS

Home | Current Version | Previous Version | Text Only | Print | Product List | Glossary On
Versions: 1 2 3 4 5 6 7 8 9 10 11 12 13 14 15 16 17
000
FTUS42 TJSJ 291605 AAA
TAFJBQ
TAF AMD
TJBQ 291605Z 2916/3012 09013KT P6SM SHRA SCT025 SCT040
     FM291700 08014KT P6SM VCTS BKN025CB BKN040 OVC070
     FM292300 10008KT P6SM VCSH SCT025 SCT040
      AMD NOT SKED 3002/3011=

USA.gov is the U.S. government's official web portal to all federal, state and local government web resources and services.